sensor_id;sensor_type;location;lat;lon;timestamp;pressure;altitude;pressure_sealevel;temperature;humidity
29909;BME280;36247;51.952;6.146;2023-05-23T00:00:58;101659.56;;;15.49;100.00
29909;BME280;36247;51.952;6.146;2023-05-23T00:03:25;101651.59;;;15.51;100.00
29909;BME280;36247;51.952;6.146;2023-05-23T00:05:51;101661.41;;;15.57;100.00
29909;BME280;36247;51.952;6.146;2023-05-23T00:08:18;101652.50;;;15.51;100.00
29909;BME280;36247;51.952;6.146;2023-05-23T00:10:44;101663.13;;;15.45;100.00
29909;BME280;36247;51.952;6.146;2023-05-23T00:13:10;101655.22;;;15.62;100.00
29909;BME280;36247;51.952;6.146;2023-05-23T00:15:42;101659.66;;;15.59;100.00
29909;BME280;36247;51.952;6.146;2023-05-23T00:18:09;101655.19;;;15.59;100.00
29909;BME280;36247;51.952;6.146;2023-05-23T00:20:40;101655.16;;;15.50;100.00
29909;BME280;36247;51.952;6.146;2023-05-23T00:23:11;101663.09;;;15.39;100.00
29909;BME280;36247;51.952;6.146;2023-05-23T00:25:44;101655.13;;;15.44;100.00
29909;BME280;36247;51.952;6.146;2023-05-23T00:28:13;101657.78;;;15.42;100.00
29909;BME280;36247;51.952;6.146;2023-05-23T00:30:39;101653.31;;;15.43;100.00
29909;BME280;36247;51.952;6.146;2023-05-23T00:33:07;101655.19;;;15.56;100.00
29909;BME280;36247;51.952;6.146;2023-05-23T00:35:33;101656.88;;;15.43;100.00
29909;BME280;36247;51.952;6.146;2023-05-23T00:37:59;101650.59;;;15.37;100.00
29909;BME280;36247;51.952;6.146;2023-05-23T00:40:26;101651.47;;;15.36;100.00
29909;BME280;36247;51.952;6.146;2023-05-23T00:42:52;101653.28;;;15.35;100.00
29909;BME280;36247;51.952;6.146;2023-05-23T00:45:18;101662.09;;;15.28;100.00
29909;BME280;36247;51.952;6.146;2023-05-23T00:47:47;101664.84;;;15.40;100.00
29909;BME280;36247;51.952;6.146;2023-05-23T00:50:13;101661.28;;;15.38;100.00
29909;BME280;36247;51.952;6.146;2023-05-23T00:52:41;101659.44;;;15.29;100.00
29909;BME280;36247;51.952;6.146;2023-05-23T00:55:08;101669.28;;;15.37;100.00
29909;BME280;36247;51.952;6.146;2023-05-23T00:57:35;101671.13;;;15.44;100.00
29909;BME280;36247;51.952;6.146;2023-05-23T01:00:10;101667.47;;;15.29;100.00
29909;BME280;36247;51.952;6.146;2023-05-23T01:02:43;101667.47;;;15.32;100.00
29909;BME280;36247;51.952;6.146;2023-05-23T01:05:10;101673.69;;;15.33;100.00
29909;BME280;36247;51.952;6.146;2023-05-23T01:07:39;101678.13;;;15.26;100.00
29909;BME280;36247;51.952;6.146;2023-05-23T01:10:07;101669.13;;;15.18;100.00
29909;BME280;36247;51.952;6.146;2023-05-23T01:12:44;101673.63;;;15.24;100.00
29909;BME280;36247;51.952;6.146;2023-05-23T01:15:14;101678.94;;;15.19;100.00
29909;BME280;36247;51.952;6.146;2023-05-23T01:20:22;101678.00;;;15.12;100.00
29909;BME280;36247;51.952;6.146;2023-05-23T01:28:19;101695.75;;;15.09;100.00
29909;BME280;36247;51.952;6.146;2023-05-23T01:30:50;101706.31;;;14.95;100.00
29909;BME280;36247;51.952;6.146;2023-05-23T01:33:19;101698.22;;;14.84;100.00
29909;BME280;36247;51.952;6.146;2023-05-23T01:35:44;101703.69;;;15.01;100.00
29909;BME280;36247;51.952;6.146;2023-05-23T01:38:10;101695.63;;;14.95;100.00
29909;BME280;36247;51.952;6.146;2023-05-23T01:40:37;101696.44;;;14.88;100.00
29909;BME280;36247;51.952;6.146;2023-05-23T01:43:03;101692.94;;;14.90;100.00
29909;BME280;36247;51.952;6.146;2023-05-23T01:45:32;101693.81;;;14.91;100.00
29909;BME280;36247;51.952;6.146;2023-05-23T01:47:58;101691.19;;;14.97;100.00
29909;BME280;36247;51.952;6.146;2023-05-23T01:50:26;101690.97;;;14.71;100.00
29909;BME280;36247;51.952;6.146;2023-05-23T01:52:52;101690.03;;;14.69;100.00
29909;BME280;36247;51.952;6.146;2023-05-23T01:55:19;101700.75;;;14.75;100.00
29909;BME280;36247;51.952;6.146;2023-05-23T01:57:58;101699.13;;;14.89;100.00
29909;BME280;36247;51.952;6.146;2023-05-23T02:00:24;101707.88;;;14.76;100.00
29909;BME280;36247;51.952;6.146;2023-05-23T02:02:51;101701.06;;;15.06;100.00
29909;BME280;36247;51.952;6.146;2023-05-23T02:05:17;101704.53;;;14.95;100.00
29909;BME280;36247;51.952;6.146;2023-05-23T02:07:43;101706.19;;;14.83;100.00
29909;BME280;36247;51.952;6.146;2023-05-23T02:10:09;101717.66;;;14.74;100.00
29909;BME280;36247;51.952;6.146;2023-05-23T02:12:35;101714.19;;;14.83;100.00
29909;BME280;36247;51.952;6.146;2023-05-23T02:15:01;101716.75;;;14.73;100.00
29909;BME280;36247;51.952;6.146;2023-05-23T02:17:31;101711.59;;;14.90;100.00
29909;BME280;36247;51.952;6.146;2023-05-23T02:19:56;101722.09;;;14.75;100.00
29909;BME280;36247;51.952;6.146;2023-05-23T02:22:23;101714.19;;;14.81;100.00
29909;BME280;36247;51.952;6.146;2023-05-23T02:24:51;101721.16;;;14.70;100.00
29909;BME280;36247;51.952;6.146;2023-05-23T02:27:18;101724.75;;;14.75;100.00
29909;BME280;36247;51.952;6.146;2023-05-23T02:29:44;101720.47;;;14.88;100.00
29909;BME280;36247;51.952;6.146;2023-05-23T02:32:09;101732.81;;;14.76;100.00
29909;BME280;36247;51.952;6.146;2023-05-23T02:34:36;101720.34;;;14.77;100.00
29909;BME280;36247;51.952;6.146;2023-05-23T02:37:03;101731.88;;;14.74;100.00
29909;BME280;36247;51.952;6.146;2023-05-23T02:39:36;101739.03;;;14.75;100.00
29909;BME280;36247;51.952;6.146;2023-05-23T02:42:02;101741.69;;;14.75;100.00
29909;BME280;36247;51.952;6.146;2023-05-23T02:44:28;101747.78;;;14.65;100.00
29909;BME280;36247;51.952;6.146;2023-05-23T02:46:55;101737.22;;;14.74;100.00
29909;BME280;36247;51.952;6.146;2023-05-23T02:49:21;101742.50;;;14.70;100.00
29909;BME280;36247;51.952;6.146;2023-05-23T02:51:49;101740.00;;;14.87;100.00
29909;BME280;36247;51.952;6.146;2023-05-23T02:54:15;101746.03;;;14.67;100.00
29909;BME280;36247;51.952;6.146;2023-05-23T02:56:41;101738.91;;;14.66;100.00
29909;BME280;36247;51.952;6.146;2023-05-23T02:59:07;101738.00;;;14.66;100.00
29909;BME280;36247;51.952;6.146;2023-05-23T03:01:32;101741.59;;;14.66;100.00
29909;BME280;36247;51.952;6.146;2023-05-23T03:03:58;101735.34;;;14.67;100.00
29909;BME280;36247;51.952;6.146;2023-05-23T03:06:23;101745.84;;;14.55;100.00
29909;BME280;36247;51.952;6.146;2023-05-23T03:08:50;101749.25;;;14.41;100.00
29909;BME280;36247;51.952;6.146;2023-05-23T03:11:15;101751.94;;;14.43;100.00
29909;BME280;36247;51.952;6.146;2023-05-23T03:13:43;101745.63;;;14.36;100.00
29909;BME280;36247;51.952;6.146;2023-05-23T03:16:08;101748.38;;;14.42;100.00
29909;BME280;36247;51.952;6.146;2023-05-23T03:18:36;101751.06;;;14.44;100.00
29909;BME280;36247;51.952;6.146;2023-05-23T03:21:01;101745.88;;;14.58;100.00
29909;BME280;36247;51.952;6.146;2023-05-23T03:23:28;101759.78;;;14.32;100.00
29909;BME280;36247;51.952;6.146;2023-05-23T03:25:53;101758.16;;;14.43;100.00
29909;BME280;36247;51.952;6.146;2023-05-23T03:28:19;101763.41;;;14.37;100.00
29909;BME280;36247;51.952;6.146;2023-05-23T03:30:45;101756.97;;;14.20;100.00
29909;BME280;36247;51.952;6.146;2023-05-23T03:33:11;101762.41;;;14.27;100.00
29909;BME280;36247;51.952;6.146;2023-05-23T03:35:36;101769.44;;;14.24;100.00
29909;BME280;36247;51.952;6.146;2023-05-23T03:38:02;101765.91;;;14.23;100.00
29909;BME280;36247;51.952;6.146;2023-05-23T03:40:28;101769.56;;;14.32;100.00
29909;BME280;36247;51.952;6.146;2023-05-23T03:43:04;101760.47;;;14.17;100.00
29909;BME280;36247;51.952;6.146;2023-05-23T03:45:36;101766.09;;;14.39;100.00
29909;BME280;36247;51.952;6.146;2023-05-23T03:48:07;101760.66;;;14.31;100.00
29909;BME280;36247;51.952;6.146;2023-05-23T03:50:32;101764.94;;;14.18;100.00
29909;BME280;36247;51.952;6.146;2023-05-23T03:52:58;101767.69;;;14.23;100.00
29909;BME280;36247;51.952;6.146;2023-05-23T03:55:24;101764.94;;;14.17;100.00
29909;BME280;36247;51.952;6.146;2023-05-23T03:57:50;101771.19;;;14.20;100.00
29909;BME280;36247;51.952;6.146;2023-05-23T04:00:18;101767.72;;;14.27;100.00
29909;BME280;36247;51.952;6.146;2023-05-23T04:02:44;101774.03;;;14.36;100.00
29909;BME280;36247;51.952;6.146;2023-05-23T04:05:14;101778.41;;;14.29;100.00
29909;BME280;36247;51.952;6.146;2023-05-23T04:07:40;101772.41;;;14.45;100.00
29909;BME280;36247;51.952;6.146;2023-05-23T04:10:08;101775.84;;;14.37;100.00
29909;BME280;36247;51.952;6.146;2023-05-23T04:12:36;101776.72;;;14.36;100.00
29909;BME280;36247;51.952;6.146;2023-05-23T04:15:07;101780.16;;;14.28;100.00
29909;BME280;36247;51.952;6.146;2023-05-23T04:17:37;101780.09;;;14.24;100.00
29909;BME280;36247;51.952;6.146;2023-05-23T04:20:07;101775.66;;;14.23;100.00
29909;BME280;36247;51.952;6.146;2023-05-23T04:22:35;101778.16;;;14.12;100.00
29909;BME280;36247;51.952;6.146;2023-05-23T04:25:07;101780.16;;;14.28;100.00
29909;BME280;36247;51.952;6.146;2023-05-23T04:27:38;101782.00;;;14.33;100.00
29909;BME280;36247;51.952;6.146;2023-05-23T04:30:07;101789.31;;;14.49;100.00
29909;BME280;36247;51.952;6.146;2023-05-23T04:32:37;101787.44;;;14.40;100.00
29909;BME280;36247;51.952;6.146;2023-05-23T04:35:03;101791.88;;;14.38;100.00
29909;BME280;36247;51.952;6.146;2023-05-23T04:37:32;101790.91;;;14.33;100.00
29909;BME280;36247;51.952;6.146;2023-05-23T04:39:58;101796.13;;;14.25;100.00
29909;BME280;36247;51.952;6.146;2023-05-23T04:42:38;101797.13;;;14.32;100.00
29909;BME280;36247;51.952;6.146;2023-05-23T04:45:20;101806.00;;;14.34;100.00
29909;BME280;36247;51.952;6.146;2023-05-23T04:48:02;101811.28;;;14.29;100.00
29909;BME280;36247;51.952;6.146;2023-05-23T04:50:48;101805.97;;;14.29;100.00
29909;BME280;36247;51.952;6.146;2023-05-23T04:53:16;101800.81;;;14.43;100.00
29909;BME280;36247;51.952;6.146;2023-05-23T04:55:41;101810.00;;;14.66;100.00
29909;BME280;36247;51.952;6.146;2023-05-23T04:58:13;101809.75;;;14.47;100.00
29909;BME280;36247;51.952;6.146;2023-05-23T05:00:38;101817.84;;;14.55;100.00
29909;BME280;36247;51.952;6.146;2023-05-23T05:03:07;101821.28;;;14.46;100.00
29909;BME280;36247;51.952;6.146;2023-05-23T05:05:37;101824.88;;;14.48;100.00
29909;BME280;36247;51.952;6.146;2023-05-23T05:08:02;101825.09;;;14.63;100.00
29909;BME280;36247;51.952;6.146;2023-05-23T05:10:28;101828.56;;;14.59;100.00
29909;BME280;36247;51.952;6.146;2023-05-23T05:12:53;101832.78;;;14.43;100.00
29909;BME280;36247;51.952;6.146;2023-05-23T05:15:20;101831.72;;;14.27;100.00
29909;BME280;36247;51.952;6.146;2023-05-23T05:17:53;101837.91;;;14.26;100.00
29909;BME280;36247;51.952;6.146;2023-05-23T05:20:20;101839.75;;;14.31;100.00
29909;BME280;36247;51.952;6.146;2023-05-23T05:22:54;101839.03;;;14.42;100.00
29909;BME280;36247;51.952;6.146;2023-05-23T05:25:21;101842.44;;;14.34;100.00
29909;BME280;36247;51.952;6.146;2023-05-23T05:27:48;101847.69;;;14.26;100.00
29909;BME280;36247;51.952;6.146;2023-05-23T05:30:17;101858.44;;;14.34;100.00
29909;BME280;36247;51.952;6.146;2023-05-23T05:32:53;101857.19;;;14.10;100.00
29909;BME280;36247;51.952;6.146;2023-05-23T05:35:22;101866.28;;;14.21;100.00
29909;BME280;36247;51.952;6.146;2023-05-23T05:37:47;101860.75;;;14.10;100.00
29909;BME280;36247;51.952;6.146;2023-05-23T05:40:13;101875.13;;;14.20;100.00
29909;BME280;36247;51.952;6.146;2023-05-23T05:42:42;101873.56;;;14.33;100.00
29909;BME280;36247;51.952;6.146;2023-05-23T05:45:09;101876.47;;;13.93;100.00
29909;BME280;36247;51.952;6.146;2023-05-23T05:47:36;101884.44;;;13.92;100.00
29909;BME280;36247;51.952;6.146;2023-05-23T05:50:06;101881.69;;;13.87;100.00
29909;BME280;36247;51.952;6.146;2023-05-23T05:52:36;101890.41;;;13.77;100.00
29909;BME280;36247;51.952;6.146;2023-05-23T05:55:08;101901.34;;;13.44;100.00
29909;BME280;36247;51.952;6.146;2023-05-23T05:57:40;101900.56;;;13.51;100.00
29909;BME280;36247;51.952;6.146;2023-05-23T06:00:10;101900.09;;;13.28;100.00
29909;BME280;36247;51.952;6.146;2023-05-23T06:02:44;101911.34;;;13.55;100.00
29909;BME280;36247;51.952;6.146;2023-05-23T06:05:18;101910.50;;;13.60;100.00
29909;BME280;36247;51.952;6.146;2023-05-23T06:07:47;101913.06;;;13.55;100.00
29909;BME280;36247;51.952;6.146;2023-05-23T06:10:13;101915.22;;;13.74;100.00
29909;BME280;36247;51.952;6.146;2023-05-23T06:12:40;101930.78;;;13.51;100.00
29909;BME280;36247;51.952;6.146;2023-05-23T06:15:07;101932.03;;;13.28;100.00
29909;BME280;36247;51.952;6.146;2023-05-23T06:17:36;101921.72;;;13.43;100.00
29909;BME280;36247;51.952;6.146;2023-05-23T06:20:02;101927.56;;;13.27;100.00
29909;BME280;36247;51.952;6.146;2023-05-23T06:22:36;101926.66;;;13.25;100.00
29909;BME280;36247;51.952;6.146;2023-05-23T06:25:02;101937.16;;;13.17;100.00
29909;BME280;36247;51.952;6.146;2023-05-23T06:27:27;101942.41;;;13.14;100.00
29909;BME280;36247;51.952;6.146;2023-05-23T06:29:53;101940.50;;;13.08;100.00
29909;BME280;36247;51.952;6.146;2023-05-23T06:32:20;101941.31;;;13.04;100.00
29909;BME280;36247;51.952;6.146;2023-05-23T06:34:47;101939.88;;;13.20;100.00
29909;BME280;36247;51.952;6.146;2023-05-23T06:37:13;101943.41;;;13.20;100.00
29909;BME280;36247;51.952;6.146;2023-05-23T06:39:38;101948.81;;;13.23;100.00
29909;BME280;36247;51.952;6.146;2023-05-23T06:42:07;101958.22;;;13.08;100.00
29909;BME280;36247;51.952;6.146;2023-05-23T06:44:51;101961.25;;;13.25;100.00
29909;BME280;36247;51.952;6.146;2023-05-23T06:47:21;101973.47;;;13.16;100.00
29909;BME280;36247;51.952;6.146;2023-05-23T06:49:47;101969.97;;;13.17;100.00
29909;BME280;36247;51.952;6.146;2023-05-23T06:52:14;101975.78;;;12.99;100.00
29909;BME280;36247;51.952;6.146;2023-05-23T06:54:41;101969.72;;;13.05;100.00
29909;BME280;36247;51.952;6.146;2023-05-23T06:57:08;101976.31;;;12.83;100.00
29909;BME280;36247;51.952;6.146;2023-05-23T06:59:33;101978.09;;;12.82;100.00
29909;BME280;36247;51.952;6.146;2023-05-23T07:01:59;101983.16;;;12.73;100.00
29909;BME280;36247;51.952;6.146;2023-05-23T07:04:25;101982.34;;;12.76;100.00
29909;BME280;36247;51.952;6.146;2023-05-23T07:06:52;101993.03;;;12.77;100.00
29909;BME280;36247;51.952;6.146;2023-05-23T07:09:18;101981.28;;;12.67;100.00
29909;BME280;36247;51.952;6.146;2023-05-23T07:11:44;101992.59;;;12.59;100.00
29909;BME280;36247;51.952;6.146;2023-05-23T07:14:10;101993.81;;;12.73;100.00
29909;BME280;36247;51.952;6.146;2023-05-23T07:16:40;101986.78;;;12.75;100.00
29909;BME280;36247;51.952;6.146;2023-05-23T07:19:08;101997.47;;;12.78;100.00
29909;BME280;36247;51.952;6.146;2023-05-23T07:21:40;101999.22;;;12.78;100.00
29909;BME280;36247;51.952;6.146;2023-05-23T07:24:07;102009.91;;;12.79;100.00
29909;BME280;36247;51.952;6.146;2023-05-23T07:26:33;102017.84;;;13.16;100.00
29909;BME280;36247;51.952;6.146;2023-05-23T07:28:58;102006.09;;;13.08;100.00
29909;BME280;36247;51.952;6.146;2023-05-23T07:31:25;102013.47;;;13.19;100.00
29909;BME280;36247;51.952;6.146;2023-05-23T07:33:53;102002.88;;;13.64;100.00
29909;BME280;36247;51.952;6.146;2023-05-23T07:36:24;102010.38;;;13.39;100.00
29909;BME280;36247;51.952;6.146;2023-05-23T07:38:51;102004.41;;;13.52;100.00
29909;BME280;36247;51.952;6.146;2023-05-23T07:41:18;102004.78;;;13.69;100.00
29909;BME280;36247;51.952;6.146;2023-05-23T07:43:44;102002.09;;;13.27;100.00
29909;BME280;36247;51.952;6.146;2023-05-23T07:46:10;102009.53;;;13.42;100.00
29909;BME280;36247;51.952;6.146;2023-05-23T07:48:37;102018.00;;;13.23;100.00
29909;BME280;36247;51.952;6.146;2023-05-23T07:51:03;102017.72;;;13.51;100.00
29909;BME280;36247;51.952;6.146;2023-05-23T07:53:31;102022.91;;;13.45;100.00
29909;BME280;36247;51.952;6.146;2023-05-23T07:55:57;102017.09;;;13.64;100.00
29909;BME280;36247;51.952;6.146;2023-05-23T07:58:25;102022.19;;;13.52;100.00
29909;BME280;36247;51.952;6.146;2023-05-23T08:00:51;102016.25;;;13.67;100.00
29909;BME280;36247;51.952;6.146;2023-05-23T08:03:37;102019.56;;;14.51;100.00
29909;BME280;36247;51.952;6.146;2023-05-23T08:06:09;102026.34;;;14.31;100.00
29909;BME280;36247;51.952;6.146;2023-05-23T08:08:36;102013.16;;;14.40;100.00
29909;BME280;36247;51.952;6.146;2023-05-23T08:11:07;102018.78;;;15.16;100.00
29909;BME280;36247;51.952;6.146;2023-05-23T08:13:39;102029.16;;;14.95;100.00
29909;BME280;36247;51.952;6.146;2023-05-23T08:16:31;102030.94;;;14.93;100.00
29909;BME280;36247;51.952;6.146;2023-05-23T08:18:56;102028.72;;;14.66;100.00
29909;BME280;36247;51.952;6.146;2023-05-23T08:21:25;102034.63;;;15.04;100.00
29909;BME280;36247;51.952;6.146;2023-05-23T08:23:51;102030.78;;;14.85;100.00
29909;BME280;36247;51.952;6.146;2023-05-23T08:26:20;102030.50;;;15.26;100.00
29909;BME280;36247;51.952;6.146;2023-05-23T08:28:49;102033.22;;;14.70;100.00
29909;BME280;36247;51.952;6.146;2023-05-23T08:31:18;102042.81;;;14.08;100.00
29909;BME280;36247;51.952;6.146;2023-05-23T08:33:44;102051.38;;;13.91;100.00
29909;BME280;36247;51.952;6.146;2023-05-23T08:36:11;102057.63;;;14.41;100.00
29909;BME280;36247;51.952;6.146;2023-05-23T08:38:37;102057.19;;;14.18;100.00
29909;BME280;36247;51.952;6.146;2023-05-23T08:41:19;102058.28;;;14.29;100.00
29909;BME280;36247;51.952;6.146;2023-05-23T08:43:51;102056.72;;;14.42;100.00
29909;BME280;36247;51.952;6.146;2023-05-23T08:46:25;102062.34;;;14.57;100.00
29909;BME280;36247;51.952;6.146;2023-05-23T08:48:54;102067.97;;;14.25;100.00
29909;BME280;36247;51.952;6.146;2023-05-23T08:51:25;102057.81;;;14.53;100.00
29909;BME280;36247;51.952;6.146;2023-05-23T08:53:53;102065.38;;;15.39;100.00
29909;BME280;36247;51.952;6.146;2023-05-23T08:56:27;102053.31;;;15.72;100.00
29909;BME280;36247;51.952;6.146;2023-05-23T08:58:53;102059.09;;;16.07;100.00
29909;BME280;36247;51.952;6.146;2023-05-23T09:01:21;102060.47;;;16.57;100.00
29909;BME280;36247;51.952;6.146;2023-05-23T09:03:54;102059.16;;;16.15;100.00
29909;BME280;36247;51.952;6.146;2023-05-23T09:06:27;102057.09;;;15.88;100.00
29909;BME280;36247;51.952;6.146;2023-05-23T09:08:57;102060.34;;;15.63;100.00
29909;BME280;36247;51.952;6.146;2023-05-23T09:11:24;102066.78;;;15.78;100.00
29909;BME280;36247;51.952;6.146;2023-05-23T09:13:50;102070.53;;;15.26;100.00
29909;BME280;36247;51.952;6.146;2023-05-23T09:16:18;102080.19;;;15.16;100.00
29909;BME280;36247;51.952;6.146;2023-05-23T09:18:52;102079.16;;;15.07;100.00
29909;BME280;36247;51.952;6.146;2023-05-23T09:21:23;102095.84;;;14.93;100.00
29909;BME280;36247;51.952;6.146;2023-05-23T09:23:57;102085.31;;;15.03;100.00
29909;BME280;36247;51.952;6.146;2023-05-23T09:26:25;102087.66;;;15.39;100.00
29909;BME280;36247;51.952;6.146;2023-05-23T09:28:56;102084.53;;;15.08;100.00
29909;BME280;36247;51.952;6.146;2023-05-23T09:31:27;102088.06;;;15.73;100.00
29909;BME280;36247;51.952;6.146;2023-05-23T09:33:57;102089.25;;;15.95;100.00
29909;BME280;36247;51.952;6.146;2023-05-23T09:36:23;102093.28;;;15.62;100.00
29909;BME280;36247;51.952;6.146;2023-05-23T09:38:52;102082.69;;;15.72;100.00
29909;BME280;36247;51.952;6.146;2023-05-23T09:41:22;102085.31;;;15.67;100.00
29909;BME280;36247;51.952;6.146;2023-05-23T09:43:53;102091.59;;;15.67;100.00
29909;BME280;36247;51.952;6.146;2023-05-23T09:46:20;102091.53;;;16.39;100.00
29909;BME280;36247;51.952;6.146;2023-05-23T09:48:49;102086.91;;;17.34;100.00
29909;BME280;36247;51.952;6.146;2023-05-23T09:51:23;102093.38;;;17.74;100.00
29909;BME280;36247;51.952;6.146;2023-05-23T09:53:53;102100.47;;;17.63;100.00
29909;BME280;36247;51.952;6.146;2023-05-23T09:56:19;102100.06;;;16.95;100.00
29909;BME280;36247;51.952;6.146;2023-05-23T09:58:49;102097.00;;;16.53;100.00
29909;BME280;36247;51.952;6.146;2023-05-23T10:01:16;102096.22;;;16.68;100.00
29909;BME280;36247;51.952;6.146;2023-05-23T10:03:51;102094.47;;;18.37;100.00
29909;BME280;36247;51.952;6.146;2023-05-23T10:09:12;102087.31;;;18.36;100.00
29909;BME280;36247;51.952;6.146;2023-05-23T10:14:14;102093.13;;;17.25;100.00
29909;BME280;36247;51.952;6.146;2023-05-23T10:19:41;102089.88;;;17.91;100.00
29909;BME280;36247;51.952;6.146;2023-05-23T10:22:09;102081.09;;;18.88;99.71
29909;BME280;36247;51.952;6.146;2023-05-23T10:24:36;102079.28;;;18.70;94.48
29909;BME280;36247;51.952;6.146;2023-05-23T10:27:05;102085.44;;;19.47;100.00
29909;BME280;36247;51.952;6.146;2023-05-23T10:29:32;102087.97;;;19.97;96.95
29909;BME280;36247;51.952;6.146;2023-05-23T10:32:02;102090.72;;;19.69;100.00
29909;BME280;36247;51.952;6.146;2023-05-23T10:37:21;102086.22;;;19.77;85.48
29909;BME280;36247;51.952;6.146;2023-05-23T10:45:40;102093.28;;;20.06;86.54
29909;BME280;36247;51.952;6.146;2023-05-23T10:51:07;102105.34;;;20.83;69.74
29909;BME280;36247;51.952;6.146;2023-05-23T10:53:36;102103.97;;;20.21;76.67
29909;BME280;36247;51.952;6.146;2023-05-23T10:56:07;102093.25;;;20.09;81.67
29909;BME280;36247;51.952;6.146;2023-05-23T10:58:40;102093.53;;;19.38;81.08
29909;BME280;36247;51.952;6.146;2023-05-23T11:01:09;102081.97;;;20.86;76.99
29909;BME280;36247;51.952;6.146;2023-05-23T11:06:35;102089.84;;;21.09;76.48
29909;BME280;36247;51.952;6.146;2023-05-23T11:09:27;102097.88;;;19.88;75.34
29909;BME280;36247;51.952;6.146;2023-05-23T11:12:02;102092.16;;;20.42;90.72
29909;BME280;36247;51.952;6.146;2023-05-23T11:17:29;102098.19;;;20.80;68.76
29909;BME280;36247;51.952;6.146;2023-05-23T11:20:11;102094.91;;;21.37;65.04
29909;BME280;36247;51.952;6.146;2023-05-23T11:22:53;102096.44;;;21.63;64.57
29909;BME280;36247;51.952;6.146;2023-05-23T11:25:19;102095.69;;;20.51;77.87
29909;BME280;36247;51.952;6.146;2023-05-23T11:27:45;102094.19;;;20.08;84.95
29909;BME280;36247;51.952;6.146;2023-05-23T11:30:17;102086.00;;;20.22;86.65
29909;BME280;36247;51.952;6.146;2023-05-23T11:32:52;102096.28;;;18.84;90.85
29909;BME280;36247;51.952;6.146;2023-05-23T11:35:23;102102.34;;;19.86;94.31
29909;BME280;36247;51.952;6.146;2023-05-23T11:37:49;102102.53;;;19.25;89.16
29909;BME280;36247;51.952;6.146;2023-05-23T11:40:40;102101.94;;;20.54;88.37
29909;BME280;36247;51.952;6.146;2023-05-23T11:43:08;102090.09;;;22.90;68.01
29909;BME280;36247;51.952;6.146;2023-05-23T11:45:36;102106.38;;;20.66;69.65
29909;BME280;36247;51.952;6.146;2023-05-23T11:48:10;102094.75;;;21.53;72.73
29909;BME280;36247;51.952;6.146;2023-05-23T11:50:50;102104.00;;;21.27;69.46
29909;BME280;36247;51.952;6.146;2023-05-23T11:53:19;102105.06;;;19.76;79.36
29909;BME280;36247;51.952;6.146;2023-05-23T11:56:00;102106.28;;;20.77;76.71
29909;BME280;36247;51.952;6.146;2023-05-23T11:58:28;102105.91;;;21.19;69.61
29909;BME280;36247;51.952;6.146;2023-05-23T12:01:04;102105.13;;;21.06;65.68
29909;BME280;36247;51.952;6.146;2023-05-23T12:03:33;102104.69;;;21.51;67.56
29909;BME280;36247;51.952;6.146;2023-05-23T12:06:00;102104.09;;;21.97;65.17
29909;BME280;36247;51.952;6.146;2023-05-23T12:08:26;102097.06;;;21.83;61.42
29909;BME280;36247;51.952;6.146;2023-05-23T12:10:57;102095.97;;;21.98;67.94
29909;BME280;36247;51.952;6.146;2023-05-23T12:13:24;102105.69;;;20.29;72.62
29909;BME280;36247;51.952;6.146;2023-05-23T12:15:58;102100.09;;;20.59;67.40
29909;BME280;36247;51.952;6.146;2023-05-23T12:18:27;102107.81;;;19.62;84.70
29909;BME280;36247;51.952;6.146;2023-05-23T12:20:53;102108.75;;;18.29;84.04
29909;BME280;36247;51.952;6.146;2023-05-23T12:23:26;102117.56;;;19.94;80.77
29909;BME280;36247;51.952;6.146;2023-05-23T12:25:53;102108.94;;;21.69;63.58
29909;BME280;36247;51.952;6.146;2023-05-23T12:28:20;102123.88;;;19.77;67.63
29909;BME280;36247;51.952;6.146;2023-05-23T12:30:48;102123.84;;;19.89;64.74
29909;BME280;36247;51.952;6.146;2023-05-23T12:33:13;102128.13;;;20.32;61.53
29909;BME280;36247;51.952;6.146;2023-05-23T12:35:43;102130.59;;;20.61;61.26
29909;BME280;36247;51.952;6.146;2023-05-23T12:38:16;102122.81;;;20.15;62.43
29909;BME280;36247;51.952;6.146;2023-05-23T12:40:43;102119.94;;;21.48;64.73
29909;BME280;36247;51.952;6.146;2023-05-23T12:43:09;102134.31;;;20.48;64.11
29909;BME280;36247;51.952;6.146;2023-05-23T12:45:37;102145.53;;;19.15;71.21
29909;BME280;36247;51.952;6.146;2023-05-23T12:48:06;102144.31;;;20.24;71.01
29909;BME280;36247;51.952;6.146;2023-05-23T12:50:32;102135.13;;;20.56;69.88
29909;BME280;36247;51.952;6.146;2023-05-23T12:53:00;102136.84;;;20.71;67.68
29909;BME280;36247;51.952;6.146;2023-05-23T12:55:25;102131.69;;;21.43;65.73
29909;BME280;36247;51.952;6.146;2023-05-23T12:57:51;102140.00;;;19.77;58.97
29909;BME280;36247;51.952;6.146;2023-05-23T13:00:20;102128.34;;;19.86;66.36
29909;BME280;36247;51.952;6.146;2023-05-23T13:02:45;102129.16;;;20.10;69.99
29909;BME280;36247;51.952;6.146;2023-05-23T13:05:11;102126.72;;;19.26;72.08
29909;BME280;36247;51.952;6.146;2023-05-23T13:07:36;102143.75;;;19.05;75.96
29909;BME280;36247;51.952;6.146;2023-05-23T13:10:07;102141.91;;;18.59;79.30
29909;BME280;36247;51.952;6.146;2023-05-23T13:12:32;102140.00;;;18.17;79.10
29909;BME280;36247;51.952;6.146;2023-05-23T13:15:01;102124.75;;;19.76;76.01
29909;BME280;36247;51.952;6.146;2023-05-23T13:17:27;102116.75;;;21.12;62.15
29909;BME280;36247;51.952;6.146;2023-05-23T13:19:52;102129.41;;;18.84;65.58
29909;BME280;36247;51.952;6.146;2023-05-23T13:22:19;102133.38;;;20.48;75.43
29909;BME280;36247;51.952;6.146;2023-05-23T13:24:44;102127.22;;;20.27;75.50